sensor_id;sensor_type;location;lat;lon;timestamp;P1;durP1;ratioP1;P2;durP2;ratioP2
5900;SDS011;2976;49.764;9.796;2022-09-12T00:00:11;21.33;;;13.40;;
5900;SDS011;2976;49.764;9.796;2022-09-12T00:02:37;28.03;;;14.50;;
5900;SDS011;2976;49.764;9.796;2022-09-12T00:05:03;26.30;;;13.17;;
5900;SDS011;2976;49.764;9.796;2022-09-12T00:07:31;23.93;;;14.53;;
5900;SDS011;2976;49.764;9.796;2022-09-12T00:09:56;26.50;;;16.00;;
5900;SDS011;2976;49.764;9.796;2022-09-12T00:12:22;30.63;;;15.53;;
5900;SDS011;2976;49.764;9.796;2022-09-12T00:14:48;26.47;;;16.67;;
5900;SDS011;2976;49.764;9.796;2022-09-12T00:17:13;34.03;;;17.40;;
5900;SDS011;2976;49.764;9.796;2022-09-12T00:19:39;28.33;;;16.50;;
5900;SDS011;2976;49.764;9.796;2022-09-12T00:22:04;32.80;;;16.10;;
5900;SDS011;2976;49.764;9.796;2022-09-12T00:24:30;33.83;;;17.70;;
5900;SDS011;2976;49.764;9.796;2022-09-12T00:26:57;28.17;;;16.23;;
5900;SDS011;2976;49.764;9.796;2022-09-12T00:29:22;30.10;;;13.23;;
5900;SDS011;2976;49.764;9.796;2022-09-12T00:31:48;20.70;;;12.37;;
5900;SDS011;2976;49.764;9.796;2022-09-12T00:34:13;17.70;;;11.83;;
5900;SDS011;2976;49.764;9.796;2022-09-12T00:36:39;19.80;;;11.77;;
5900;SDS011;2976;49.764;9.796;2022-09-12T00:39:05;15.00;;;10.43;;
5900;SDS011;2976;49.764;9.796;2022-09-12T00:41:33;16.83;;;10.10;;
5900;SDS011;2976;49.764;9.796;2022-09-12T00:44:02;20.67;;;11.00;;
5900;SDS011;2976;49.764;9.796;2022-09-12T00:46:59;20.23;;;11.20;;
5900;SDS011;2976;49.764;9.796;2022-09-12T00:52:50;22.60;;;11.40;;
5900;SDS011;2976;49.764;9.796;2022-09-12T00:55:26;18.90;;;11.00;;
5900;SDS011;2976;49.764;9.796;2022-09-12T00:58:01;27.17;;;13.30;;
5900;SDS011;2976;49.764;9.796;2022-09-12T01:00:32;19.03;;;11.27;;
5900;SDS011;2976;49.764;9.796;2022-09-12T01:03:01;25.90;;;13.00;;
5900;SDS011;2976;49.764;9.796;2022-09-12T01:05:30;19.03;;;12.30;;
5900;SDS011;2976;49.764;9.796;2022-09-12T01:08:01;16.30;;;10.23;;
5900;SDS011;2976;49.764;9.796;2022-09-12T01:10:28;21.20;;;11.93;;
5900;SDS011;2976;49.764;9.796;2022-09-12T01:12:54;23.23;;;11.17;;
5900;SDS011;2976;49.764;9.796;2022-09-12T01:15:19;20.60;;;12.07;;
5900;SDS011;2976;49.764;9.796;2022-09-12T01:36:33;26.60;;;15.20;;
5900;SDS011;2976;49.764;9.796;2022-09-12T01:39:24;33.03;;;15.57;;
5900;SDS011;2976;49.764;9.796;2022-09-12T01:43:00;29.40;;;15.53;;
5900;SDS011;2976;49.764;9.796;2022-09-12T01:45:16;29.77;;;15.13;;
5900;SDS011;2976;49.764;9.796;2022-09-12T01:47:46;28.63;;;14.40;;
5900;SDS011;2976;49.764;9.796;2022-09-12T01:50:19;27.83;;;14.40;;
5900;SDS011;2976;49.764;9.796;2022-09-12T01:55:43;26.40;;;13.63;;
5900;SDS011;2976;49.764;9.796;2022-09-12T01:58:18;24.20;;;13.93;;
5900;SDS011;2976;49.764;9.796;2022-09-12T02:03:38;27.03;;;13.73;;
5900;SDS011;2976;49.764;9.796;2022-09-12T02:06:17;27.80;;;14.60;;
5900;SDS011;2976;49.764;9.796;2022-09-12T02:09:04;41.07;;;17.03;;
5900;SDS011;2976;49.764;9.796;2022-09-12T02:11:57;85.97;;;18.37;;
5900;SDS011;2976;49.764;9.796;2022-09-12T02:14:25;88.00;;;18.17;;
5900;SDS011;2976;49.764;9.796;2022-09-12T02:16:58;60.07;;;15.17;;
5900;SDS011;2976;49.764;9.796;2022-09-12T02:19:31;104.23;;;16.03;;
5900;SDS011;2976;49.764;9.796;2022-09-12T02:22:01;104.83;;;17.53;;
5900;SDS011;2976;49.764;9.796;2022-09-12T02:24:30;82.83;;;15.03;;
5900;SDS011;2976;49.764;9.796;2022-09-12T02:27:02;117.17;;;15.13;;
5900;SDS011;2976;49.764;9.796;2022-09-12T02:29:37;43.57;;;13.33;;
5900;SDS011;2976;49.764;9.796;2022-09-12T02:32:04;64.90;;;12.77;;
5900;SDS011;2976;49.764;9.796;2022-09-12T02:34:41;91.97;;;13.67;;
5900;SDS011;2976;49.764;9.796;2022-09-12T02:37:33;68.80;;;13.70;;
5900;SDS011;2976;49.764;9.796;2022-09-12T02:40:08;44.33;;;11.60;;
5900;SDS011;2976;49.764;9.796;2022-09-12T02:42:34;53.43;;;12.43;;
5900;SDS011;2976;49.764;9.796;2022-09-12T02:45:00;35.97;;;12.30;;
5900;SDS011;2976;49.764;9.796;2022-09-12T02:47:32;44.43;;;13.03;;
5900;SDS011;2976;49.764;9.796;2022-09-12T02:50:02;28.57;;;12.53;;
5900;SDS011;2976;49.764;9.796;2022-09-12T02:52:29;67.17;;;13.27;;
5900;SDS011;2976;49.764;9.796;2022-09-12T02:54:56;81.90;;;14.23;;
5900;SDS011;2976;49.764;9.796;2022-09-12T02:57:22;25.47;;;10.50;;
5900;SDS011;2976;49.764;9.796;2022-09-12T02:59:48;33.57;;;10.60;;
5900;SDS011;2976;49.764;9.796;2022-09-12T03:21:32;30.53;;;10.27;;
5900;SDS011;2976;49.764;9.796;2022-09-12T03:24:23;24.13;;;10.70;;
5900;SDS011;2976;49.764;9.796;2022-09-12T03:27:21;19.90;;;10.23;;
5900;SDS011;2976;49.764;9.796;2022-09-12T03:30:00;46.60;;;10.20;;
5900;SDS011;2976;49.764;9.796;2022-09-12T03:35:10;41.77;;;8.33;;
5900;SDS011;2976;49.764;9.796;2022-09-12T03:37:37;51.50;;;9.63;;
5900;SDS011;2976;49.764;9.796;2022-09-12T03:40:03;41.43;;;9.53;;
5900;SDS011;2976;49.764;9.796;2022-09-12T03:42:30;24.80;;;9.10;;
5900;SDS011;2976;49.764;9.796;2022-09-12T03:44:55;44.33;;;10.73;;
5900;SDS011;2976;49.764;9.796;2022-09-12T03:47:21;39.13;;;9.63;;
5900;SDS011;2976;49.764;9.796;2022-09-12T03:49:46;14.57;;;8.40;;
5900;SDS011;2976;49.764;9.796;2022-09-12T03:52:12;21.40;;;8.47;;
5900;SDS011;2976;49.764;9.796;2022-09-12T03:54:37;46.60;;;9.70;;
5900;SDS011;2976;49.764;9.796;2022-09-12T03:57:03;30.50;;;9.20;;
5900;SDS011;2976;49.764;9.796;2022-09-12T03:59:29;38.10;;;8.40;;
5900;SDS011;2976;49.764;9.796;2022-09-12T04:01:55;62.90;;;9.20;;
5900;SDS011;2976;49.764;9.796;2022-09-12T04:04:20;55.73;;;9.07;;
5900;SDS011;2976;49.764;9.796;2022-09-12T04:06:46;45.03;;;8.50;;
5900;SDS011;2976;49.764;9.796;2022-09-12T04:09:11;85.13;;;11.37;;
5900;SDS011;2976;49.764;9.796;2022-09-12T04:11:37;44.23;;;9.30;;
5900;SDS011;2976;49.764;9.796;2022-09-12T04:14:02;61.87;;;10.00;;
5900;SDS011;2976;49.764;9.796;2022-09-12T04:16:28;80.07;;;11.80;;
5900;SDS011;2976;49.764;9.796;2022-09-12T04:18:53;96.17;;;11.33;;
5900;SDS011;2976;49.764;9.796;2022-09-12T04:21:19;74.13;;;9.90;;
5900;SDS011;2976;49.764;9.796;2022-09-12T04:23:46;37.50;;;9.30;;
5900;SDS011;2976;49.764;9.796;2022-09-12T04:26:12;22.47;;;8.17;;
5900;SDS011;2976;49.764;9.796;2022-09-12T04:28:38;31.57;;;7.60;;
5900;SDS011;2976;49.764;9.796;2022-09-12T04:31:23;82.17;;;7.57;;
5900;SDS011;2976;49.764;9.796;2022-09-12T04:33:56;50.77;;;9.97;;
5900;SDS011;2976;49.764;9.796;2022-09-12T04:36:23;72.33;;;9.93;;
5900;SDS011;2976;49.764;9.796;2022-09-12T04:38:50;81.00;;;8.13;;
5900;SDS011;2976;49.764;9.796;2022-09-12T04:41:23;19.93;;;8.00;;
5900;SDS011;2976;49.764;9.796;2022-09-12T04:43:51;29.63;;;8.53;;
5900;SDS011;2976;49.764;9.796;2022-09-12T04:46:18;9.07;;;6.10;;
5900;SDS011;2976;49.764;9.796;2022-09-12T04:48:44;38.40;;;6.47;;
5900;SDS011;2976;49.764;9.796;2022-09-12T04:51:11;20.80;;;7.10;;
5900;SDS011;2976;49.764;9.796;2022-09-12T04:53:38;46.50;;;7.87;;
5900;SDS011;2976;49.764;9.796;2022-09-12T04:56:05;42.67;;;7.00;;
5900;SDS011;2976;49.764;9.796;2022-09-12T04:58:33;24.40;;;6.70;;
5900;SDS011;2976;49.764;9.796;2022-09-12T05:01:12;59.00;;;7.43;;
5900;SDS011;2976;49.764;9.796;2022-09-12T05:03:40;34.83;;;7.20;;
5900;SDS011;2976;49.764;9.796;2022-09-12T05:06:08;30.17;;;6.40;;
5900;SDS011;2976;49.764;9.796;2022-09-12T05:08:35;73.37;;;8.20;;
5900;SDS011;2976;49.764;9.796;2022-09-12T05:11:02;53.37;;;7.10;;
5900;SDS011;2976;49.764;9.796;2022-09-12T05:13:35;72.13;;;7.40;;
5900;SDS011;2976;49.764;9.796;2022-09-12T05:16:02;34.87;;;7.03;;
5900;SDS011;2976;49.764;9.796;2022-09-12T05:18:32;65.67;;;6.63;;
5900;SDS011;2976;49.764;9.796;2022-09-12T05:21:00;16.43;;;6.33;;
5900;SDS011;2976;49.764;9.796;2022-09-12T05:23:27;13.90;;;6.30;;
5900;SDS011;2976;49.764;9.796;2022-09-12T05:25:54;28.27;;;7.03;;
5900;SDS011;2976;49.764;9.796;2022-09-12T05:28:22;16.13;;;6.37;;
5900;SDS011;2976;49.764;9.796;2022-09-12T05:30:58;14.87;;;6.00;;
5900;SDS011;2976;49.764;9.796;2022-09-12T05:33:28;30.87;;;8.13;;
5900;SDS011;2976;49.764;9.796;2022-09-12T05:35:55;34.43;;;8.87;;
5900;SDS011;2976;49.764;9.796;2022-09-12T05:38:20;17.50;;;6.80;;
5900;SDS011;2976;49.764;9.796;2022-09-12T05:40:48;35.27;;;7.00;;
5900;SDS011;2976;49.764;9.796;2022-09-12T05:43:14;31.00;;;6.87;;
5900;SDS011;2976;49.764;9.796;2022-09-12T05:45:40;17.47;;;6.70;;
5900;SDS011;2976;49.764;9.796;2022-09-12T05:48:06;18.00;;;7.10;;
5900;SDS011;2976;49.764;9.796;2022-09-12T05:50:31;11.40;;;7.57;;
5900;SDS011;2976;49.764;9.796;2022-09-12T05:52:57;66.47;;;9.40;;
5900;SDS011;2976;49.764;9.796;2022-09-12T05:55:22;15.70;;;6.97;;
5900;SDS011;2976;49.764;9.796;2022-09-12T05:57:48;40.47;;;7.50;;
5900;SDS011;2976;49.764;9.796;2022-09-12T06:00:14;42.10;;;7.17;;
5900;SDS011;2976;49.764;9.796;2022-09-12T06:02:40;26.93;;;8.03;;
5900;SDS011;2976;49.764;9.796;2022-09-12T06:05:06;54.43;;;8.17;;
5900;SDS011;2976;49.764;9.796;2022-09-12T06:07:32;72.93;;;8.67;;
5900;SDS011;2976;49.764;9.796;2022-09-12T06:09:57;128.37;;;9.93;;
5900;SDS011;2976;49.764;9.796;2022-09-12T06:12:23;108.70;;;9.77;;
5900;SDS011;2976;49.764;9.796;2022-09-12T06:14:50;98.07;;;7.10;;
5900;SDS011;2976;49.764;9.796;2022-09-12T06:17:16;118.10;;;8.60;;
5900;SDS011;2976;49.764;9.796;2022-09-12T06:19:42;76.60;;;7.63;;
5900;SDS011;2976;49.764;9.796;2022-09-12T06:22:08;95.33;;;8.90;;
5900;SDS011;2976;49.764;9.796;2022-09-12T06:24:34;67.53;;;7.57;;
5900;SDS011;2976;49.764;9.796;2022-09-12T06:27:00;127.53;;;9.50;;
5900;SDS011;2976;49.764;9.796;2022-09-12T06:29:26;60.03;;;7.60;;
5900;SDS011;2976;49.764;9.796;2022-09-12T06:31:52;116.17;;;8.10;;
5900;SDS011;2976;49.764;9.796;2022-09-12T06:34:17;78.23;;;8.20;;
5900;SDS011;2976;49.764;9.796;2022-09-12T06:36:48;78.23;;;8.00;;
5900;SDS011;2976;49.764;9.796;2022-09-12T06:39:15;77.73;;;8.67;;
5900;SDS011;2976;49.764;9.796;2022-09-12T06:41:42;86.27;;;9.30;;
5900;SDS011;2976;49.764;9.796;2022-09-12T06:44:09;65.93;;;7.80;;
5900;SDS011;2976;49.764;9.796;2022-09-12T06:46:38;96.60;;;8.60;;
5900;SDS011;2976;49.764;9.796;2022-09-12T06:49:03;45.00;;;7.80;;
5900;SDS011;2976;49.764;9.796;2022-09-12T06:51:29;127.13;;;11.20;;
5900;SDS011;2976;49.764;9.796;2022-09-12T06:53:55;93.77;;;10.30;;
5900;SDS011;2976;49.764;9.796;2022-09-12T06:56:22;129.50;;;9.70;;
5900;SDS011;2976;49.764;9.796;2022-09-12T06:58:50;100.43;;;10.73;;
5900;SDS011;2976;49.764;9.796;2022-09-12T07:01:18;34.77;;;10.27;;
5900;SDS011;2976;49.764;9.796;2022-09-12T07:03:51;53.73;;;9.07;;
5900;SDS011;2976;49.764;9.796;2022-09-12T07:06:19;56.03;;;10.63;;
5900;SDS011;2976;49.764;9.796;2022-09-12T07:08:48;43.33;;;9.37;;
5900;SDS011;2976;49.764;9.796;2022-09-12T07:11:15;36.10;;;8.50;;
5900;SDS011;2976;49.764;9.796;2022-09-12T07:13:43;51.20;;;9.53;;
5900;SDS011;2976;49.764;9.796;2022-09-12T07:16:09;58.50;;;9.53;;
5900;SDS011;2976;49.764;9.796;2022-09-12T07:18:36;64.80;;;10.10;;
5900;SDS011;2976;49.764;9.796;2022-09-12T07:21:03;36.93;;;9.13;;
5900;SDS011;2976;49.764;9.796;2022-09-12T07:23:30;32.87;;;8.40;;
5900;SDS011;2976;49.764;9.796;2022-09-12T07:25:56;44.83;;;10.30;;
5900;SDS011;2976;49.764;9.796;2022-09-12T07:28:23;27.10;;;9.90;;
5900;SDS011;2976;49.764;9.796;2022-09-12T07:30:50;38.53;;;9.17;;
5900;SDS011;2976;49.764;9.796;2022-09-12T07:33:18;33.03;;;10.33;;
5900;SDS011;2976;49.764;9.796;2022-09-12T07:35:47;85.20;;;10.40;;
5900;SDS011;2976;49.764;9.796;2022-09-12T07:38:13;43.60;;;9.00;;
5900;SDS011;2976;49.764;9.796;2022-09-12T07:40:39;47.73;;;9.20;;
5900;SDS011;2976;49.764;9.796;2022-09-12T07:43:04;11.53;;;9.13;;
5900;SDS011;2976;49.764;9.796;2022-09-12T07:45:30;24.73;;;9.53;;
5900;SDS011;2976;49.764;9.796;2022-09-12T07:47:56;21.63;;;9.53;;
5900;SDS011;2976;49.764;9.796;2022-09-12T07:50:21;15.47;;;8.80;;
5900;SDS011;2976;49.764;9.796;2022-09-12T07:52:47;16.23;;;9.50;;
5900;SDS011;2976;49.764;9.796;2022-09-12T07:55:12;20.00;;;10.40;;
5900;SDS011;2976;49.764;9.796;2022-09-12T07:57:38;12.60;;;9.50;;
5900;SDS011;2976;49.764;9.796;2022-09-12T08:00:04;14.33;;;9.77;;
5900;SDS011;2976;49.764;9.796;2022-09-12T08:02:31;12.80;;;9.53;;
5900;SDS011;2976;49.764;9.796;2022-09-12T08:04:57;10.33;;;9.20;;
5900;SDS011;2976;49.764;9.796;2022-09-12T08:07:22;10.93;;;9.10;;
5900;SDS011;2976;49.764;9.796;2022-09-12T08:09:48;11.60;;;8.50;;
5900;SDS011;2976;49.764;9.796;2022-09-12T08:12:13;11.83;;;9.63;;
5900;SDS011;2976;49.764;9.796;2022-09-12T08:14:40;11.60;;;9.33;;
5900;SDS011;2976;49.764;9.796;2022-09-12T08:17:06;23.33;;;10.77;;
5900;SDS011;2976;49.764;9.796;2022-09-12T08:19:31;12.07;;;9.87;;
5900;SDS011;2976;49.764;9.796;2022-09-12T08:21:57;16.40;;;8.57;;
5900;SDS011;2976;49.764;9.796;2022-09-12T08:24:22;11.50;;;10.23;;
5900;SDS011;2976;49.764;9.796;2022-09-12T08:26:48;11.63;;;9.67;;
5900;SDS011;2976;49.764;9.796;2022-09-12T08:29:14;16.10;;;11.40;;
5900;SDS011;2976;49.764;9.796;2022-09-12T08:31:40;17.17;;;10.33;;
5900;SDS011;2976;49.764;9.796;2022-09-12T08:34:06;15.77;;;11.10;;
5900;SDS011;2976;49.764;9.796;2022-09-12T08:36:32;13.03;;;10.10;;
5900;SDS011;2976;49.764;9.796;2022-09-12T08:38:59;16.50;;;11.30;;
5900;SDS011;2976;49.764;9.796;2022-09-12T08:41:30;13.27;;;11.03;;
5900;SDS011;2976;49.764;9.796;2022-09-12T08:49:46;16.30;;;10.97;;
5900;SDS011;2976;49.764;9.796;2022-09-12T08:52:14;14.90;;;11.20;;
5900;SDS011;2976;49.764;9.796;2022-09-12T08:54:48;13.30;;;10.77;;
5900;SDS011;2976;49.764;9.796;2022-09-12T08:57:14;14.87;;;10.60;;
5900;SDS011;2976;49.764;9.796;2022-09-12T08:59:41;15.07;;;11.27;;
5900;SDS011;2976;49.764;9.796;2022-09-12T09:11:41;13.10;;;10.67;;
5900;SDS011;2976;49.764;9.796;2022-09-12T09:16:40;14.53;;;11.50;;
5900;SDS011;2976;49.764;9.796;2022-09-12T09:19:11;12.57;;;10.43;;
5900;SDS011;2976;49.764;9.796;2022-09-12T09:21:47;13.93;;;12.27;;
5900;SDS011;2976;49.764;9.796;2022-09-12T09:24:18;11.97;;;10.17;;
5900;SDS011;2976;49.764;9.796;2022-09-12T09:26:52;13.60;;;11.03;;
5900;SDS011;2976;49.764;9.796;2022-09-12T09:29:43;15.80;;;12.17;;
5900;SDS011;2976;49.764;9.796;2022-09-12T09:32:14;12.63;;;9.20;;
5900;SDS011;2976;49.764;9.796;2022-09-12T09:34:42;9.90;;;8.90;;
5900;SDS011;2976;49.764;9.796;2022-09-12T09:37:52;8.70;;;7.90;;
5900;SDS011;2976;49.764;9.796;2022-09-12T09:42:58;10.77;;;9.70;;
5900;SDS011;2976;49.764;9.796;2022-09-12T09:45:29;14.17;;;10.70;;
5900;SDS011;2976;49.764;9.796;2022-09-12T09:50:44;14.87;;;10.60;;
5900;SDS011;2976;49.764;9.796;2022-09-12T09:53:13;14.23;;;10.90;;
5900;SDS011;2976;49.764;9.796;2022-09-12T09:55:52;14.30;;;11.90;;
5900;SDS011;2976;49.764;9.796;2022-09-12T09:58:28;14.10;;;11.43;;
5900;SDS011;2976;49.764;9.796;2022-09-12T10:00:59;13.70;;;11.40;;
5900;SDS011;2976;49.764;9.796;2022-09-12T10:03:30;13.43;;;11.70;;
5900;SDS011;2976;49.764;9.796;2022-09-12T10:05:58;15.70;;;10.40;;
5900;SDS011;2976;49.764;9.796;2022-09-12T10:08:27;14.77;;;10.30;;
5900;SDS011;2976;49.764;9.796;2022-09-12T10:11:03;9.90;;;8.90;;
5900;SDS011;2976;49.764;9.796;2022-09-12T10:16:25;14.53;;;9.70;;
5900;SDS011;2976;49.764;9.796;2022-09-12T10:18:59;10.70;;;8.60;;
5900;SDS011;2976;49.764;9.796;2022-09-12T10:21:35;13.70;;;10.30;;
5900;SDS011;2976;49.764;9.796;2022-09-12T10:24:22;10.23;;;8.53;;
5900;SDS011;2976;49.764;9.796;2022-09-12T10:27:24;12.43;;;8.40;;
5900;SDS011;2976;49.764;9.796;2022-09-12T10:29:52;10.73;;;8.80;;
5900;SDS011;2976;49.764;9.796;2022-09-12T10:35:01;9.90;;;8.30;;
5900;SDS011;2976;49.764;9.796;2022-09-12T10:37:41;10.37;;;7.87;;
5900;SDS011;2976;49.764;9.796;2022-09-12T10:40:23;10.40;;;8.63;;
5900;SDS011;2976;49.764;9.796;2022-09-12T10:42:58;10.17;;;7.00;;
5900;SDS011;2976;49.764;9.796;2022-09-12T10:47:55;9.60;;;6.70;;
5900;SDS011;2976;49.764;9.796;2022-09-12T10:56:20;7.10;;;5.97;;
5900;SDS011;2976;49.764;9.796;2022-09-12T11:12:18;4.70;;;4.30;;
5900;SDS011;2976;49.764;9.796;2022-09-12T11:15:06;5.70;;;4.77;;
5900;SDS011;2976;49.764;9.796;2022-09-12T11:17:53;4.77;;;4.37;;
5900;SDS011;2976;49.764;9.796;2022-09-12T11:20:39;5.17;;;4.40;;
5900;SDS011;2976;49.764;9.796;2022-09-12T11:29:03;5.60;;;5.10;;
5900;SDS011;2976;49.764;9.796;2022-09-12T11:34:39;4.20;;;3.80;;
5900;SDS011;2976;49.764;9.796;2022-09-12T11:39:54;4.50;;;4.10;;
5900;SDS011;2976;49.764;9.796;2022-09-12T11:42:25;4.23;;;3.90;;
5900;SDS011;2976;49.764;9.796;2022-09-12T11:45:12;4.80;;;4.30;;
5900;SDS011;2976;49.764;9.796;2022-09-12T11:47:43;5.43;;;4.93;;
5900;SDS011;2976;49.764;9.796;2022-09-12T11:50:31;4.50;;;4.10;;
5900;SDS011;2976;49.764;9.796;2022-09-12T11:52:57;4.70;;;3.67;;
5900;SDS011;2976;49.764;9.796;2022-09-12T11:55:35;5.87;;;4.20;;
5900;SDS011;2976;49.764;9.796;2022-09-12T11:58:11;5.10;;;4.60;;
5900;SDS011;2976;49.764;9.796;2022-09-12T12:00:40;9.30;;;4.60;;
5900;SDS011;2976;49.764;9.796;2022-09-12T12:03:17;5.60;;;4.33;;
5900;SDS011;2976;49.764;9.796;2022-09-12T12:06:01;4.20;;;3.80;;
5900;SDS011;2976;49.764;9.796;2022-09-12T12:08:30;8.20;;;4.53;;
5900;SDS011;2976;49.764;9.796;2022-09-12T12:11:02;4.03;;;3.63;;
5900;SDS011;2976;49.764;9.796;2022-09-12T12:16:14;5.00;;;4.60;;
5900;SDS011;2976;49.764;9.796;2022-09-12T12:21:48;4.63;;;4.17;;
5900;SDS011;2976;49.764;9.796;2022-09-12T12:34:31;6.10;;;5.50;;
5900;SDS011;2976;49.764;9.796;2022-09-12T12:39:55;8.53;;;6.23;;
5900;SDS011;2976;49.764;9.796;2022-09-12T13:01:11;5.23;;;4.73;;
5900;SDS011;2976;49.764;9.796;2022-09-12T13:03:45;9.40;;;5.40;;
5900;SDS011;2976;49.764;9.796;2022-09-12T13:06:32;5.03;;;4.63;;
5900;SDS011;2976;49.764;9.796;2022-09-12T13:08:59;4.53;;;4.13;;
5900;SDS011;2976;49.764;9.796;2022-09-12T13:11:29;5.77;;;5.17;;
5900;SDS011;2976;49.764;9.796;2022-09-12T13:14:06;5.20;;;4.70;;
5900;SDS011;2976;49.764;9.796;2022-09-12T13:16:52;4.03;;;3.73;;
5900;SDS011;2976;49.764;9.796;2022-09-12T13:19:30;6.07;;;4.30;;
5900;SDS011;2976;49.764;9.796;2022-09-12T13:24:33;5.13;;;4.70;;
5900;SDS011;2976;49.764;9.796;2022-09-12T13:29:44;6.10;;;5.17;;
5900;SDS011;2976;49.764;9.796;2022-09-12T13:32:09;5.70;;;4.87;;
5900;SDS011;2976;49.764;9.796;2022-09-12T13:34:55;7.70;;;5.30;;
5900;SDS011;2976;49.764;9.796;2022-09-12T13:40:26;5.20;;;4.70;;
5900;SDS011;2976;49.764;9.796;2022-09-12T13:43:13;4.40;;;4.00;;
5900;SDS011;2976;49.764;9.796;2022-09-12T13:45:41;4.07;;;3.67;;
5900;SDS011;2976;49.764;9.796;2022-09-12T13:48:14;3.90;;;3.60;;
5900;SDS011;2976;49.764;9.796;2022-09-12T13:53:17;8.90;;;4.93;;
5900;SDS011;2976;49.764;9.796;2022-09-12T13:55:47;6.13;;;3.73;;
5900;SDS011;2976;49.764;9.796;2022-09-12T13:58:30;5.10;;;3.70;;
5900;SDS011;2976;49.764;9.796;2022-09-12T14:01:10;9.63;;;4.23;;
5900;SDS011;2976;49.764;9.796;2022-09-12T14:03:40;6.40;;;3.83;;
5900;SDS011;2976;49.764;9.796;2022-09-12T14:06:25;5.53;;;4.30;;
5900;SDS011;2976;49.764;9.796;2022-09-12T14:08:51;5.23;;;4.00;;
5900;SDS011;2976;49.764;9.796;2022-09-12T14:11:23;5.57;;;5.07;;
5900;SDS011;2976;49.764;9.796;2022-09-12T14:13:53;7.03;;;4.13;;
5900;SDS011;2976;49.764;9.796;2022-09-12T14:16:20;7.77;;;5.03;;
5900;SDS011;2976;49.764;9.796;2022-09-12T14:18:48;4.53;;;4.20;;
5900;SDS011;2976;49.764;9.796;2022-09-12T14:23:54;7.70;;;3.87;;
5900;SDS011;2976;49.764;9.796;2022-09-12T14:26:21;3.87;;;3.47;;
5900;SDS011;2976;49.764;9.796;2022-09-12T14:28:48;5.10;;;3.70;;
5900;SDS011;2976;49.764;9.796;2022-09-12T14:33:51;4.33;;;3.40;;
5900;SDS011;2976;49.764;9.796;2022-09-12T14:36:38;5.33;;;3.77;;
5900;SDS011;2976;49.764;9.796;2022-09-12T14:42:06;4.13;;;3.83;;
5900;SDS011;2976;49.764;9.796;2022-09-12T14:44:37;7.40;;;3.27;;
5900;SDS011;2976;49.764;9.796;2022-09-12T14:47:10;3.53;;;3.33;;
5900;SDS011;2976;49.764;9.796;2022-09-12T14:49:48;4.23;;;3.70;;
5900;SDS011;2976;49.764;9.796;2022-09-12T14:54:58;8.47;;;3.60;;
5900;SDS011;2976;49.764;9.796;2022-09-12T14:57:43;5.83;;;3.67;;
5900;SDS011;2976;49.764;9.796;2022-09-12T15:02:38;3.70;;;3.40;;
5900;SDS011;2976;49.764;9.796;2022-09-12T15:07:32;4.83;;;3.70;;
5900;SDS011;2976;49.764;9.796;2022-09-12T15:10:00;3.50;;;3.30;;
5900;SDS011;2976;49.764;9.796;2022-09-12T15:12:31;6.17;;;4.43;;
5900;SDS011;2976;49.764;9.796;2022-09-12T15:15:05;4.07;;;3.77;;
5900;SDS011;2976;49.764;9.796;2022-09-12T15:17:37;3.57;;;3.30;;
5900;SDS011;2976;49.764;9.796;2022-09-12T15:20:03;4.70;;;3.07;;
5900;SDS011;2976;49.764;9.796;2022-09-12T15:22:29;4.10;;;3.00;;
5900;SDS011;2976;49.764;9.796;2022-09-12T15:24:57;12.30;;;3.07;;
5900;SDS011;2976;49.764;9.796;2022-09-12T15:27:23;3.70;;;3.33;;
5900;SDS011;2976;49.764;9.796;2022-09-12T15:29:50;3.73;;;3.43;;
5900;SDS011;2976;49.764;9.796;2022-09-12T15:32:23;3.30;;;3.10;;
5900;SDS011;2976;49.764;9.796;2022-09-12T15:34:49;3.10;;;2.90;;
5900;SDS011;2976;49.764;9.796;2022-09-12T15:37:15;5.07;;;3.00;;
5900;SDS011;2976;49.764;9.796;2022-09-12T15:39:41;3.67;;;3.30;;
5900;SDS011;2976;49.764;9.796;2022-09-12T15:42:10;4.30;;;2.90;;
5900;SDS011;2976;49.764;9.796;2022-09-12T15:44:36;3.00;;;2.80;;
5900;SDS011;2976;49.764;9.796;2022-09-12T15:47:01;5.70;;;3.80;;
5900;SDS011;2976;49.764;9.796;2022-09-12T15:49:27;3.47;;;3.27;;
5900;SDS011;2976;49.764;9.796;2022-09-12T15:51:53;3.27;;;2.97;;
5900;SDS011;2976;49.764;9.796;2022-09-12T15:54:19;3.50;;;2.57;;
5900;SDS011;2976;49.764;9.796;2022-09-12T15:56:45;3.50;;;3.20;;
5900;SDS011;2976;49.764;9.796;2022-09-12T15:59:11;4.27;;;3.50;;
5900;SDS011;2976;49.764;9.796;2022-09-12T16:01:37;5.63;;;3.63;;
5900;SDS011;2976;49.764;9.796;2022-09-12T16:04:03;4.90;;;4.17;;
5900;SDS011;2976;49.764;9.796;2022-09-12T16:06:51;3.40;;;3.20;;
5900;SDS011;2976;49.764;9.796;2022-09-12T16:09:18;3.53;;;3.23;;
5900;SDS011;2976;49.764;9.796;2022-09-12T16:11:44;2.90;;;2.67;;
5900;SDS011;2976;49.764;9.796;2022-09-12T16:14:14;4.00;;;3.33;;
5900;SDS011;2976;49.764;9.796;2022-09-12T16:16:41;5.10;;;3.80;;
5900;SDS011;2976;49.764;9.796;2022-09-12T16:19:07;4.37;;;3.90;;
5900;SDS011;2976;49.764;9.796;2022-09-12T16:21:34;3.47;;;3.17;;
5900;SDS011;2976;49.764;9.796;2022-09-12T16:24:00;3.43;;;3.13;;
5900;SDS011;2976;49.764;9.796;2022-09-12T16:26:26;6.27;;;3.60;;
5900;SDS011;2976;49.764;9.796;2022-09-12T16:28:55;3.70;;;3.20;;
5900;SDS011;2976;49.764;9.796;2022-09-12T16:31:21;10.23;;;3.10;;
5900;SDS011;2976;49.764;9.796;2022-09-12T16:33:47;3.40;;;3.10;;
5900;SDS011;2976;49.764;9.796;2022-09-12T16:36:13;3.30;;;3.00;;
5900;SDS011;2976;49.764;9.796;2022-09-12T16:38:45;3.30;;;3.00;;
5900;SDS011;2976;49.764;9.796;2022-09-12T16:41:16;11.00;;;4.00;;
5900;SDS011;2976;49.764;9.796;2022-09-12T16:43:42;3.83;;;3.53;;
5900;SDS011;2976;49.764;9.796;2022-09-12T16:46:10;4.20;;;3.27;;
5900;SDS011;2976;49.764;9.796;2022-09-12T16:48:40;4.07;;;3.60;;
5900;SDS011;2976;49.764;9.796;2022-09-12T16:51:10;3.70;;;3.40;;
5900;SDS011;2976;49.764;9.796;2022-09-12T16:53:36;4.00;;;3.47;;
5900;SDS011;2976;49.764;9.796;2022-09-12T16:56:03;4.10;;;3.70;;
5900;SDS011;2976;49.764;9.796;2022-09-12T16:58:37;3.90;;;3.53;;
5900;SDS011;2976;49.764;9.796;2022-09-12T17:01:08;5.57;;;3.20;;
5900;SDS011;2976;49.764;9.796;2022-09-12T17:03:39;3.97;;;3.53;;
5900;SDS011;2976;49.764;9.796;2022-09-12T17:06:15;4.10;;;3.23;;
5900;SDS011;2976;49.764;9.796;2022-09-12T17:08:43;4.67;;;3.37;;
5900;SDS011;2976;49.764;9.796;2022-09-12T17:11:11;4.40;;;4.00;;
5900;SDS011;2976;49.764;9.796;2022-09-12T17:13:39;3.37;;;3.10;;
5900;SDS011;2976;49.764;9.796;2022-09-12T17:16:06;4.33;;;3.40;;
5900;SDS011;2976;49.764;9.796;2022-09-12T17:18:33;5.83;;;2.93;;
5900;SDS011;2976;49.764;9.796;2022-09-12T17:20:59;4.00;;;3.60;;
5900;SDS011;2976;49.764;9.796;2022-09-12T17:23:24;3.73;;;3.43;;
5900;SDS011;2976;49.764;9.796;2022-09-12T17:25:50;4.60;;;3.40;;
5900;SDS011;2976;49.764;9.796;2022-09-12T17:28:16;3.77;;;3.47;;
5900;SDS011;2976;49.764;9.796;2022-09-12T17:30:42;4.73;;;4.33;;
5900;SDS011;2976;49.764;9.796;2022-09-12T17:33:08;3.87;;;3.30;;
5900;SDS011;2976;49.764;9.796;2022-09-12T17:35:34;3.77;;;3.47;;
5900;SDS011;2976;49.764;9.796;2022-09-12T17:38:01;4.80;;;4.30;;
5900;SDS011;2976;49.764;9.796;2022-09-12T17:40:27;5.27;;;3.63;;
5900;SDS011;2976;49.764;9.796;2022-09-12T17:42:53;7.20;;;4.00;;
5900;SDS011;2976;49.764;9.796;2022-09-12T17:45:18;4.50;;;4.10;;
5900;SDS011;2976;49.764;9.796;2022-09-12T17:47:44;4.23;;;3.83;;
5900;SDS011;2976;49.764;9.796;2022-09-12T17:50:09;4.50;;;4.07;;
5900;SDS011;2976;49.764;9.796;2022-09-12T17:52:35;5.17;;;4.63;;
5900;SDS011;2976;49.764;9.796;2022-09-12T17:55:01;5.33;;;4.30;;
5900;SDS011;2976;49.764;9.796;2022-09-12T17:57:27;6.00;;;4.20;;
5900;SDS011;2976;49.764;9.796;2022-09-12T17:59:52;6.23;;;4.20;;
5900;SDS011;2976;49.764;9.796;2022-09-12T18:02:18;4.20;;;3.90;;
5900;SDS011;2976;49.764;9.796;2022-09-12T18:04:44;4.00;;;3.70;;
5900;SDS011;2976;49.764;9.796;2022-09-12T18:07:14;5.30;;;4.37;;
5900;SDS011;2976;49.764;9.796;2022-09-12T18:09:42;11.50;;;4.93;;
5900;SDS011;2976;49.764;9.796;2022-09-12T18:12:08;5.37;;;3.90;;
5900;SDS011;2976;49.764;9.796;2022-09-12T18:14:34;6.70;;;5.27;;